sensor_id;sensor_type;location;lat;lon;timestamp;temperature;humidity
35746;DHT22;21870;42.812;74.628;2023-03-03T00:02:24;10.20;88.40
35746;DHT22;21870;42.812;74.628;2023-03-03T00:04:50;10.20;88.20
35746;DHT22;21870;42.812;74.628;2023-03-03T00:07:16;10.20;88.30
35746;DHT22;21870;42.812;74.628;2023-03-03T00:09:48;10.20;88.00
35746;DHT22;21870;42.812;74.628;2023-03-03T00:12:33;10.20;86.70
35746;DHT22;21870;42.812;74.628;2023-03-03T00:15:12;10.40;85.70
35746;DHT22;21870;42.812;74.628;2023-03-03T00:17:39;10.50;84.90
35746;DHT22;21870;42.812;74.628;2023-03-03T00:20:30;10.50;86.30
35746;DHT22;21870;42.812;74.628;2023-03-03T00:25:48;10.40;86.30
35746;DHT22;21870;42.812;74.628;2023-03-03T00:28:28;10.40;86.70
35746;DHT22;21870;42.812;74.628;2023-03-03T00:30:57;10.30;86.60
35746;DHT22;21870;42.812;74.628;2023-03-03T00:33:31;10.40;86.70
35746;DHT22;21870;42.812;74.628;2023-03-03T00:36:21;10.40;85.80
35746;DHT22;21870;42.812;74.628;2023-03-03T00:38:48;10.50;86.20
35746;DHT22;21870;42.812;74.628;2023-03-03T00:41:25;10.40;86.70
35746;DHT22;21870;42.812;74.628;2023-03-03T00:43:52;10.40;86.80
35746;DHT22;21870;42.812;74.628;2023-03-03T00:46:21;10.30;87.10
35746;DHT22;21870;42.812;74.628;2023-03-03T00:48:49;10.30;87.50
35746;DHT22;21870;42.812;74.628;2023-03-03T00:51:26;10.10;88.20
35746;DHT22;21870;42.812;74.628;2023-03-03T00:53:53;10.20;88.10
35746;DHT22;21870;42.812;74.628;2023-03-03T00:56:20;10.20;88.90
35746;DHT22;21870;42.812;74.628;2023-03-03T00:58:46;10.10;89.40
35746;DHT22;21870;42.812;74.628;2023-03-03T01:01:14;10.00;90.10
35746;DHT22;21870;42.812;74.628;2023-03-03T01:03:40;10.00;89.80
35746;DHT22;21870;42.812;74.628;2023-03-03T01:06:07;10.00;90.00
35746;DHT22;21870;42.812;74.628;2023-03-03T01:08:33;10.10;87.80
35746;DHT22;21870;42.812;74.628;2023-03-03T01:11:05;10.30;87.70
35746;DHT22;21870;42.812;74.628;2023-03-03T01:13:33;10.40;87.60
35746;DHT22;21870;42.812;74.628;2023-03-03T01:16:02;10.50;85.70
35746;DHT22;21870;42.812;74.628;2023-03-03T01:18:29;10.60;84.80
35746;DHT22;21870;42.812;74.628;2023-03-03T01:20:55;10.50;87.30
35746;DHT22;21870;42.812;74.628;2023-03-03T01:23:21;10.40;88.10
35746;DHT22;21870;42.812;74.628;2023-03-03T01:25:47;10.40;88.90
35746;DHT22;21870;42.812;74.628;2023-03-03T01:28:13;10.30;88.40
35746;DHT22;21870;42.812;74.628;2023-03-03T01:30:39;10.30;89.30
35746;DHT22;21870;42.812;74.628;2023-03-03T01:33:05;10.20;90.80
35746;DHT22;21870;42.812;74.628;2023-03-03T01:35:31;10.20;90.80
35746;DHT22;21870;42.812;74.628;2023-03-03T01:37:58;10.10;92.00
35746;DHT22;21870;42.812;74.628;2023-03-03T01:40:28;10.10;92.00
35746;DHT22;21870;42.812;74.628;2023-03-03T01:42:57;10.20;91.70
35746;DHT22;21870;42.812;74.628;2023-03-03T01:48:27;10.20;89.50
35746;DHT22;21870;42.812;74.628;2023-03-03T01:51:04;10.40;89.90
35746;DHT22;21870;42.812;74.628;2023-03-03T01:53:40;10.30;90.60
35746;DHT22;21870;42.812;74.628;2023-03-03T01:56:08;10.30;90.20
35746;DHT22;21870;42.812;74.628;2023-03-03T01:58:39;10.40;88.80
35746;DHT22;21870;42.812;74.628;2023-03-03T02:01:13;10.50;90.30
35746;DHT22;21870;42.812;74.628;2023-03-03T02:03:40;10.50;91.40
35746;DHT22;21870;42.812;74.628;2023-03-03T02:06:12;10.60;89.50
35746;DHT22;21870;42.812;74.628;2023-03-03T02:09:04;10.80;85.70
35746;DHT22;21870;42.812;74.628;2023-03-03T02:11:32;10.90;84.00
35746;DHT22;21870;42.812;74.628;2023-03-03T02:14:01;10.90;88.50
35746;DHT22;21870;42.812;74.628;2023-03-03T02:16:27;11.00;83.70
35746;DHT22;21870;42.812;74.628;2023-03-03T02:18:54;11.20;81.90
35746;DHT22;21870;42.812;74.628;2023-03-03T02:21:22;11.30;81.90
35746;DHT22;21870;42.812;74.628;2023-03-03T02:26:40;11.40;81.20
35746;DHT22;21870;42.812;74.628;2023-03-03T02:29:08;11.60;81.60
35746;DHT22;21870;42.812;74.628;2023-03-03T02:31:35;11.60;81.30
35746;DHT22;21870;42.812;74.628;2023-03-03T02:34:03;11.60;81.30
35746;DHT22;21870;42.812;74.628;2023-03-03T02:36:35;11.60;80.90
35746;DHT22;21870;42.812;74.628;2023-03-03T02:39:09;11.70;80.70
35746;DHT22;21870;42.812;74.628;2023-03-03T02:44:27;12.00;79.50
35746;DHT22;21870;42.812;74.628;2023-03-03T02:46:55;12.10;78.00
35746;DHT22;21870;42.812;74.628;2023-03-03T02:49:26;12.20;79.50
35746;DHT22;21870;42.812;74.628;2023-03-03T02:51:53;12.30;80.30
35746;DHT22;21870;42.812;74.628;2023-03-03T02:54:21;12.30;79.50
35746;DHT22;21870;42.812;74.628;2023-03-03T02:56:48;12.40;76.30
35746;DHT22;21870;42.812;74.628;2023-03-03T02:59:15;12.50;76.70
35746;DHT22;21870;42.812;74.628;2023-03-03T03:01:41;12.50;76.40
35746;DHT22;21870;42.812;74.628;2023-03-03T03:04:13;12.60;78.30
35746;DHT22;21870;42.812;74.628;2023-03-03T03:06:40;12.60;81.00
35746;DHT22;21870;42.812;74.628;2023-03-03T03:09:07;12.60;79.60
35746;DHT22;21870;42.812;74.628;2023-03-03T03:11:34;12.70;77.70
35746;DHT22;21870;42.812;74.628;2023-03-03T03:14:02;12.80;76.40
35746;DHT22;21870;42.812;74.628;2023-03-03T03:16:28;13.00;74.70
35746;DHT22;21870;42.812;74.628;2023-03-03T03:18:54;13.20;75.60
35746;DHT22;21870;42.812;74.628;2023-03-03T03:21:20;13.30;76.60
35746;DHT22;21870;42.812;74.628;2023-03-03T03:23:46;13.40;78.70
35746;DHT22;21870;42.812;74.628;2023-03-03T03:26:12;13.40;77.20
35746;DHT22;21870;42.812;74.628;2023-03-03T03:28:39;13.40;77.70
35746;DHT22;21870;42.812;74.628;2023-03-03T03:31:06;13.60;78.10
35746;DHT22;21870;42.812;74.628;2023-03-03T03:33:33;13.60;79.30
35746;DHT22;21870;42.812;74.628;2023-03-03T03:35:59;13.70;76.00
35746;DHT22;21870;42.812;74.628;2023-03-03T03:38:26;13.80;75.30
35746;DHT22;21870;42.812;74.628;2023-03-03T03:40:54;13.90;75.70
35746;DHT22;21870;42.812;74.628;2023-03-03T03:43:20;14.00;74.20
35746;DHT22;21870;42.812;74.628;2023-03-03T03:45:47;14.10;74.80
35746;DHT22;21870;42.812;74.628;2023-03-03T03:48:13;14.20;74.80
35746;DHT22;21870;42.812;74.628;2023-03-03T03:50:40;14.20;74.30
35746;DHT22;21870;42.812;74.628;2023-03-03T03:53:07;14.30;73.20
35746;DHT22;21870;42.812;74.628;2023-03-03T03:55:33;14.40;75.30
35746;DHT22;21870;42.812;74.628;2023-03-03T03:57:59;14.40;73.50
35746;DHT22;21870;42.812;74.628;2023-03-03T04:00:25;14.50;74.70
35746;DHT22;21870;42.812;74.628;2023-03-03T04:02:51;14.60;76.00
35746;DHT22;21870;42.812;74.628;2023-03-03T04:05:18;14.50;76.60
35746;DHT22;21870;42.812;74.628;2023-03-03T04:07:45;14.50;76.60
35746;DHT22;21870;42.812;74.628;2023-03-03T04:10:11;14.50;78.00
35746;DHT22;21870;42.812;74.628;2023-03-03T04:12:37;14.60;77.50
35746;DHT22;21870;42.812;74.628;2023-03-03T04:15:09;14.50;74.90
35746;DHT22;21870;42.812;74.628;2023-03-03T04:17:35;14.60;74.20
35746;DHT22;21870;42.812;74.628;2023-03-03T04:20:02;14.60;73.30
35746;DHT22;21870;42.812;74.628;2023-03-03T04:22:29;14.60;74.10
35746;DHT22;21870;42.812;74.628;2023-03-03T04:25:01;14.60;75.00
35746;DHT22;21870;42.812;74.628;2023-03-03T04:27:33;14.70;76.40
35746;DHT22;21870;42.812;74.628;2023-03-03T04:30:00;14.80;74.90
35746;DHT22;21870;42.812;74.628;2023-03-03T04:32:26;14.90;75.70
35746;DHT22;21870;42.812;74.628;2023-03-03T04:34:53;15.10;75.60
35746;DHT22;21870;42.812;74.628;2023-03-03T04:37:19;15.20;75.20
35746;DHT22;21870;42.812;74.628;2023-03-03T04:39:45;15.40;75.20
35746;DHT22;21870;42.812;74.628;2023-03-03T04:42:11;15.50;74.80
35746;DHT22;21870;42.812;74.628;2023-03-03T04:44:38;15.70;73.30
35746;DHT22;21870;42.812;74.628;2023-03-03T04:47:04;15.80;72.30
35746;DHT22;21870;42.812;74.628;2023-03-03T04:49:30;16.00;72.20
35746;DHT22;21870;42.812;74.628;2023-03-03T04:51:56;16.10;72.30
35746;DHT22;21870;42.812;74.628;2023-03-03T04:54:23;16.30;72.70
35746;DHT22;21870;42.812;74.628;2023-03-03T04:56:49;16.30;71.50
35746;DHT22;21870;42.812;74.628;2023-03-03T04:59:15;16.40;70.80
35746;DHT22;21870;42.812;74.628;2023-03-03T05:01:41;16.50;70.60
35746;DHT22;21870;42.812;74.628;2023-03-03T05:04:07;16.60;70.40
35746;DHT22;21870;42.812;74.628;2023-03-03T05:06:36;16.70;69.80
35746;DHT22;21870;42.812;74.628;2023-03-03T05:09:03;16.80;70.20
35746;DHT22;21870;42.812;74.628;2023-03-03T05:11:29;17.00;69.80
35746;DHT22;21870;42.812;74.628;2023-03-03T05:13:57;17.20;69.20
35746;DHT22;21870;42.812;74.628;2023-03-03T05:16:23;17.50;69.90
35746;DHT22;21870;42.812;74.628;2023-03-03T05:18:49;17.90;69.30
35746;DHT22;21870;42.812;74.628;2023-03-03T05:21:15;18.10;68.70
35746;DHT22;21870;42.812;74.628;2023-03-03T05:23:41;18.20;67.70
35746;DHT22;21870;42.812;74.628;2023-03-03T05:26:07;18.30;66.70
35746;DHT22;21870;42.812;74.628;2023-03-03T05:28:33;18.40;65.70
35746;DHT22;21870;42.812;74.628;2023-03-03T05:30:59;18.40;66.50
35746;DHT22;21870;42.812;74.628;2023-03-03T05:33:25;18.50;66.20
35746;DHT22;21870;42.812;74.628;2023-03-03T05:35:56;18.50;65.70
35746;DHT22;21870;42.812;74.628;2023-03-03T05:38:23;18.60;65.00
35746;DHT22;21870;42.812;74.628;2023-03-03T05:40:50;18.70;63.70
35746;DHT22;21870;42.812;74.628;2023-03-03T05:43:16;18.80;64.10
35746;DHT22;21870;42.812;74.628;2023-03-03T05:45:42;19.10;64.80
35746;DHT22;21870;42.812;74.628;2023-03-03T05:48:08;19.30;61.50
35746;DHT22;21870;42.812;74.628;2023-03-03T05:50:36;19.40;61.30
35746;DHT22;21870;42.812;74.628;2023-03-03T05:53:03;19.60;60.70
35746;DHT22;21870;42.812;74.628;2023-03-03T05:55:29;19.70;61.00
35746;DHT22;21870;42.812;74.628;2023-03-03T05:57:55;19.90;60.40
35746;DHT22;21870;42.812;74.628;2023-03-03T06:00:21;20.00;59.00
35746;DHT22;21870;42.812;74.628;2023-03-03T06:02:47;20.10;58.40
35746;DHT22;21870;42.812;74.628;2023-03-03T06:05:13;20.20;58.60
35746;DHT22;21870;42.812;74.628;2023-03-03T06:07:40;20.20;58.80
35746;DHT22;21870;42.812;74.628;2023-03-03T06:10:07;20.20;57.30
35746;DHT22;21870;42.812;74.628;2023-03-03T06:12:33;20.30;56.00
35746;DHT22;21870;42.812;74.628;2023-03-03T06:14:59;20.40;55.50
35746;DHT22;21870;42.812;74.628;2023-03-03T06:17:25;20.50;56.30
35746;DHT22;21870;42.812;74.628;2023-03-03T06:19:51;20.70;56.60
35746;DHT22;21870;42.812;74.628;2023-03-03T06:22:18;20.80;56.20
35746;DHT22;21870;42.812;74.628;2023-03-03T06:24:44;20.90;56.70
35746;DHT22;21870;42.812;74.628;2023-03-03T06:27:12;21.10;56.40
35746;DHT22;21870;42.812;74.628;2023-03-03T06:29:38;21.30;55.70
35746;DHT22;21870;42.812;74.628;2023-03-03T06:32:04;21.50;55.80
35746;DHT22;21870;42.812;74.628;2023-03-03T06:34:30;21.70;56.80
35746;DHT22;21870;42.812;74.628;2023-03-03T06:36:56;21.90;57.10
35746;DHT22;21870;42.812;74.628;2023-03-03T06:39:22;22.10;55.80
35746;DHT22;21870;42.812;74.628;2023-03-03T06:41:48;22.20;55.70
35746;DHT22;21870;42.812;74.628;2023-03-03T06:44:15;22.30;55.80
35746;DHT22;21870;42.812;74.628;2023-03-03T06:46:41;22.00;59.70
35746;DHT22;21870;42.812;74.628;2023-03-03T06:49:07;22.20;60.80
35746;DHT22;21870;42.812;74.628;2023-03-03T06:51:35;22.20;60.00
35746;DHT22;21870;42.812;74.628;2023-03-03T06:54:17;22.30;60.80
35746;DHT22;21870;42.812;74.628;2023-03-03T06:56:44;22.60;62.90
35746;DHT22;21870;42.812;74.628;2023-03-03T06:59:16;22.90;61.80
35746;DHT22;21870;42.812;74.628;2023-03-03T07:01:45;22.80;60.00
35746;DHT22;21870;42.812;74.628;2023-03-03T07:04:31;23.10;58.90
35746;DHT22;21870;42.812;74.628;2023-03-03T07:07:12;23.40;58.70
35746;DHT22;21870;42.812;74.628;2023-03-03T07:09:39;23.40;57.40
35746;DHT22;21870;42.812;74.628;2023-03-03T07:12:10;23.50;57.20
35746;DHT22;21870;42.812;74.628;2023-03-03T07:14:50;23.70;55.40
35746;DHT22;21870;42.812;74.628;2023-03-03T07:17:22;23.50;56.30
35746;DHT22;21870;42.812;74.628;2023-03-03T07:19:49;23.50;56.30
35746;DHT22;21870;42.812;74.628;2023-03-03T07:22:20;23.50;56.80
35746;DHT22;21870;42.812;74.628;2023-03-03T07:24:52;23.50;56.60
35746;DHT22;21870;42.812;74.628;2023-03-03T07:29:49;23.50;55.00
35746;DHT22;21870;42.812;74.628;2023-03-03T07:32:26;23.50;55.70
35746;DHT22;21870;42.812;74.628;2023-03-03T07:34:54;23.50;55.20
35746;DHT22;21870;42.812;74.628;2023-03-03T07:37:38;23.40;55.70
35746;DHT22;21870;42.812;74.628;2023-03-03T07:40:38;23.50;55.10
35746;DHT22;21870;42.812;74.628;2023-03-03T07:45:48;23.70;55.60
35746;DHT22;21870;42.812;74.628;2023-03-03T07:48:22;23.40;55.50
35746;DHT22;21870;42.812;74.628;2023-03-03T07:50:50;23.20;55.60
35746;DHT22;21870;42.812;74.628;2023-03-03T07:53:29;23.10;56.30
35746;DHT22;21870;42.812;74.628;2023-03-03T07:56:00;23.30;56.00
35746;DHT22;21870;42.812;74.628;2023-03-03T07:58:38;23.60;56.90
35746;DHT22;21870;42.812;74.628;2023-03-03T08:01:27;23.90;57.50
35746;DHT22;21870;42.812;74.628;2023-03-03T08:03:55;24.00;57.50
35746;DHT22;21870;42.812;74.628;2023-03-03T08:08:51;24.00;57.80
35746;DHT22;21870;42.812;74.628;2023-03-03T08:11:17;24.10;58.20
35746;DHT22;21870;42.812;74.628;2023-03-03T08:13:44;24.30;58.30
35746;DHT22;21870;42.812;74.628;2023-03-03T08:21:14;24.60;59.10
35746;DHT22;21870;42.812;74.628;2023-03-03T08:23:41;24.80;60.90
35746;DHT22;21870;42.812;74.628;2023-03-03T08:26:08;25.00;59.70
35746;DHT22;21870;42.812;74.628;2023-03-03T08:28:34;25.10;59.00
35746;DHT22;21870;42.812;74.628;2023-03-03T08:31:00;25.20;59.80
35746;DHT22;21870;42.812;74.628;2023-03-03T08:33:26;25.20;59.70
35746;DHT22;21870;42.812;74.628;2023-03-03T08:35:52;25.30;58.70
35746;DHT22;21870;42.812;74.628;2023-03-03T08:38:20;25.40;58.40
35746;DHT22;21870;42.812;74.628;2023-03-03T08:40:47;25.50;58.90
35746;DHT22;21870;42.812;74.628;2023-03-03T08:43:14;25.80;58.40
35746;DHT22;21870;42.812;74.628;2023-03-03T08:45:50;25.80;58.90
35746;DHT22;21870;42.812;74.628;2023-03-03T08:48:18;25.80;59.00
35746;DHT22;21870;42.812;74.628;2023-03-03T08:50:44;25.90;59.10
35746;DHT22;21870;42.812;74.628;2023-03-03T08:53:11;26.00;58.90
35746;DHT22;21870;42.812;74.628;2023-03-03T08:55:38;25.80;57.50
35746;DHT22;21870;42.812;74.628;2023-03-03T08:58:04;25.80;57.00
35746;DHT22;21870;42.812;74.628;2023-03-03T09:00:31;25.60;57.40
35746;DHT22;21870;42.812;74.628;2023-03-03T09:02:57;25.40;58.60
35746;DHT22;21870;42.812;74.628;2023-03-03T09:05:24;25.70;59.40
35746;DHT22;21870;42.812;74.628;2023-03-03T09:07:51;25.80;57.10
35746;DHT22;21870;42.812;74.628;2023-03-03T09:10:22;25.80;57.20
35746;DHT22;21870;42.812;74.628;2023-03-03T09:12:57;25.70;57.90
35746;DHT22;21870;42.812;74.628;2023-03-03T09:15:36;25.80;58.80
35746;DHT22;21870;42.812;74.628;2023-03-03T09:20:37;25.70;58.30
35746;DHT22;21870;42.812;74.628;2023-03-03T09:25:49;25.40;55.80
35746;DHT22;21870;42.812;74.628;2023-03-03T09:28:31;25.10;56.50
35746;DHT22;21870;42.812;74.628;2023-03-03T09:31:02;24.80;56.50
35746;DHT22;21870;42.812;74.628;2023-03-03T09:33:44;24.60;56.10
35746;DHT22;21870;42.812;74.628;2023-03-03T09:36:34;24.30;55.60
35746;DHT22;21870;42.812;74.628;2023-03-03T09:39:31;24.00;55.50
35746;DHT22;21870;42.812;74.628;2023-03-03T09:47:33;23.20;55.90
35746;DHT22;21870;42.812;74.628;2023-03-03T10:07:24;22.00;56.70
35746;DHT22;21870;42.812;74.628;2023-03-03T10:10:02;21.70;57.40
35746;DHT22;21870;42.812;74.628;2023-03-03T10:18:14;21.10;59.30
35746;DHT22;21870;42.812;74.628;2023-03-03T10:21:04;20.90;60.00
35746;DHT22;21870;42.812;74.628;2023-03-03T10:24:13;20.70;61.40
35746;DHT22;21870;42.812;74.628;2023-03-03T10:32:22;20.30;64.40
35746;DHT22;21870;42.812;74.628;2023-03-03T10:35:06;20.20;65.10
35746;DHT22;21870;42.812;74.628;2023-03-03T10:37:59;20.10;65.90
35746;DHT22;21870;42.812;74.628;2023-03-03T10:40:32;20.10;66.30
35746;DHT22;21870;42.812;74.628;2023-03-03T10:48:46;19.50;75.80
35746;DHT22;21870;42.812;74.628;2023-03-03T10:51:28;19.00;80.10
35746;DHT22;21870;42.812;74.628;2023-03-03T11:02:02;18.10;89.70
35746;DHT22;21870;42.812;74.628;2023-03-03T11:04:40;17.90;90.60
35746;DHT22;21870;42.812;74.628;2023-03-03T11:07:54;17.80;91.80
35746;DHT22;21870;42.812;74.628;2023-03-03T11:18:33;17.10;95.80
35746;DHT22;21870;42.812;74.628;2023-03-03T11:24:09;16.20;99.90
35746;DHT22;21870;42.812;74.628;2023-03-03T11:29:20;15.70;99.90
35746;DHT22;21870;42.812;74.628;2023-03-03T11:32:10;15.50;99.90
35746;DHT22;21870;42.812;74.628;2023-03-03T11:38:18;15.30;99.90
35746;DHT22;21870;42.812;74.628;2023-03-03T11:43:41;15.00;99.90
35746;DHT22;21870;42.812;74.628;2023-03-03T11:46:17;14.90;99.90
35746;DHT22;21870;42.812;74.628;2023-03-03T11:51:31;14.50;99.90
35746;DHT22;21870;42.812;74.628;2023-03-03T11:54:23;14.30;99.90
35746;DHT22;21870;42.812;74.628;2023-03-03T11:56:51;14.20;99.90
35746;DHT22;21870;42.812;74.628;2023-03-03T12:05:35;13.60;99.90
35746;DHT22;21870;42.812;74.628;2023-03-03T12:08:12;13.60;99.90
35746;DHT22;21870;42.812;74.628;2023-03-03T12:11:00;13.40;99.90
35746;DHT22;21870;42.812;74.628;2023-03-03T12:13:55;13.20;99.90
35746;DHT22;21870;42.812;74.628;2023-03-03T12:21:57;12.70;99.90
35746;DHT22;21870;42.812;74.628;2023-03-03T12:35:42;12.60;99.90
35746;DHT22;21870;42.812;74.628;2023-03-03T12:40:59;12.50;99.90
35746;DHT22;21870;42.812;74.628;2023-03-03T12:49:15;12.20;99.90
35746;DHT22;21870;42.812;74.628;2023-03-03T12:54:13;11.90;99.90
35746;DHT22;21870;42.812;74.628;2023-03-03T13:08:04;11.20;99.90
35746;DHT22;21870;42.812;74.628;2023-03-03T13:10:51;11.10;99.90
35746;DHT22;21870;42.812;74.628;2023-03-03T13:16:46;11.10;99.90
35746;DHT22;21870;42.812;74.628;2023-03-03T13:19:22;11.20;99.90
35746;DHT22;21870;42.812;74.628;2023-03-03T13:21:57;11.20;99.90
35746;DHT22;21870;42.812;74.628;2023-03-03T13:27:01;11.30;99.90
35746;DHT22;21870;42.812;74.628;2023-03-03T13:29:40;11.20;99.90
35746;DHT22;21870;42.812;74.628;2023-03-03T13:32:28;11.20;99.90
35746;DHT22;21870;42.812;74.628;2023-03-03T13:37:44;11.30;99.90
35746;DHT22;21870;42.812;74.628;2023-03-03T13:48:00;11.40;99.90
35746;DHT22;21870;42.812;74.628;2023-03-03T13:50:38;11.50;99.90
35746;DHT22;21870;42.812;74.628;2023-03-03T13:53:21;11.50;99.90
35746;DHT22;21870;42.812;74.628;2023-03-03T14:01:48;11.60;99.90
35746;DHT22;21870;42.812;74.628;2023-03-03T14:04:30;11.60;99.90
35746;DHT22;21870;42.812;74.628;2023-03-03T14:07:06;11.60;99.90
35746;DHT22;21870;42.812;74.628;2023-03-03T14:15:21;11.60;99.90
35746;DHT22;21870;42.812;74.628;2023-03-03T14:21:02;11.60;99.90
35746;DHT22;21870;42.812;74.628;2023-03-03T14:24:02;11.50;99.90
35746;DHT22;21870;42.812;74.628;2023-03-03T14:26:29;11.60;99.90
35746;DHT22;21870;42.812;74.628;2023-03-03T14:29:34;11.50;99.90
35746;DHT22;21870;42.812;74.628;2023-03-03T14:32:02;11.50;99.90
35746;DHT22;21870;42.812;74.628;2023-03-03T14:34:44;11.50;99.90
35746;DHT22;21870;42.812;74.628;2023-03-03T14:37:26;11.60;99.90
35746;DHT22;21870;42.812;74.628;2023-03-03T14:42:54;11.60;99.90
35746;DHT22;21870;42.812;74.628;2023-03-03T14:45:40;11.60;99.90
35746;DHT22;21870;42.812;74.628;2023-03-03T14:48:10;11.60;99.90
35746;DHT22;21870;42.812;74.628;2023-03-03T14:50:42;11.50;99.90
35746;DHT22;21870;42.812;74.628;2023-03-03T14:53:33;11.50;99.90
35746;DHT22;21870;42.812;74.628;2023-03-03T14:58:52;11.50;99.90
35746;DHT22;21870;42.812;74.628;2023-03-03T15:01:35;11.40;99.90
35746;DHT22;21870;42.812;74.628;2023-03-03T15:04:02;11.30;99.90
35746;DHT22;21870;42.812;74.628;2023-03-03T15:06:52;11.20;99.90
35746;DHT22;21870;42.812;74.628;2023-03-03T15:09:39;11.00;99.90
35746;DHT22;21870;42.812;74.628;2023-03-03T15:14:46;10.90;99.90
35746;DHT22;21870;42.812;74.628;2023-03-03T15:17:40;11.00;99.90
35746;DHT22;21870;42.812;74.628;2023-03-03T15:25:46;10.90;99.90
35746;DHT22;21870;42.812;74.628;2023-03-03T15:34:03;10.40;99.90
35746;DHT22;21870;42.812;74.628;2023-03-03T15:53:11;10.20;99.90
35746;DHT22;21870;42.812;74.628;2023-03-03T16:03:55;10.00;99.90
35746;DHT22;21870;42.812;74.628;2023-03-03T16:06:38;9.90;99.90
35746;DHT22;21870;42.812;74.628;2023-03-03T16:20:14;9.70;99.90
35746;DHT22;21870;42.812;74.628;2023-03-03T16:25:50;9.70;99.90
35746;DHT22;21870;42.812;74.628;2023-03-03T16:37:20;9.60;99.90
35746;DHT22;21870;42.812;74.628;2023-03-03T16:42:42;9.70;99.90
35746;DHT22;21870;42.812;74.628;2023-03-03T16:45:17;9.60;99.90
35746;DHT22;21870;42.812;74.628;2023-03-03T17:02:09;9.40;99.90
35746;DHT22;21870;42.812;74.628;2023-03-03T17:04:57;9.30;99.90
35746;DHT22;21870;42.812;74.628;2023-03-03T17:10:25;9.10;99.90
35746;DHT22;21870;42.812;74.628;2023-03-03T17:16:04;9.10;99.90
35746;DHT22;21870;42.812;74.628;2023-03-03T17:18:55;9.00;99.90
35746;DHT22;21870;42.812;74.628;2023-03-03T17:24:47;9.00;99.90
35746;DHT22;21870;42.812;74.628;2023-03-03T17:27:42;9.10;99.90
35746;DHT22;21870;42.812;74.628;2023-03-03T17:30:26;9.00;99.90
35746;DHT22;21870;42.812;74.628;2023-03-03T17:33:06;8.90;99.90
35746;DHT22;21870;42.812;74.628;2023-03-03T17:41:57;9.00;99.90
35746;DHT22;21870;42.812;74.628;2023-03-03T17:45:02;8.90;99.90
35746;DHT22;21870;42.812;74.628;2023-03-03T18:01:18;9.10;99.90
35746;DHT22;21870;42.812;74.628;2023-03-03T18:15:29;9.30;99.90
35746;DHT22;21870;42.812;74.628;2023-03-03T18:20:55;9.20;99.90
35746;DHT22;21870;42.812;74.628;2023-03-03T18:23:38;9.30;99.90
35746;DHT22;21870;42.812;74.628;2023-03-03T18:26:28;9.30;99.90
35746;DHT22;21870;42.812;74.628;2023-03-03T18:34:35;9.20;99.90
35746;DHT22;21870;42.812;74.628;2023-03-03T18:42:43;8.90;99.90
35746;DHT22;21870;42.812;74.628;2023-03-03T18:48:12;8.80;99.90
35746;DHT22;21870;42.812;74.628;2023-03-03T18:50:40;8.90;99.90
35746;DHT22;21870;42.812;74.628;2023-03-03T18:56:00;8.70;99.90
35746;DHT22;21870;42.812;74.628;2023-03-03T18:58:37;8.60;99.90
35746;DHT22;21870;42.812;74.628;2023-03-03T19:04:00;8.80;99.90
35746;DHT22;21870;42.812;74.628;2023-03-03T19:09:03;8.60;99.90
35746;DHT22;21870;42.812;74.628;2023-03-03T19:11:40;8.50;99.90
35746;DHT22;21870;42.812;74.628;2023-03-03T19:16:51;8.40;99.90
35746;DHT22;21870;42.812;74.628;2023-03-03T19:19:20;8.30;99.90
35746;DHT22;21870;42.812;74.628;2023-03-03T19:21:50;8.30;99.90
35746;DHT22;21870;42.812;74.628;2023-03-03T19:24:31;8.30;99.90
35746;DHT22;21870;42.812;74.628;2023-03-03T19:27:07;8.10;99.90
35746;DHT22;21870;42.812;74.628;2023-03-03T19:32:41;8.20;99.90
35746;DHT22;21870;42.812;74.628;2023-03-03T19:35:25;8.10;99.90
35746;DHT22;21870;42.812;74.628;2023-03-03T19:43:43;8.10;99.90
35746;DHT22;21870;42.812;74.628;2023-03-03T19:48:59;8.00;99.90
35746;DHT22;21870;42.812;74.628;2023-03-03T19:54:22;7.90;99.90
35746;DHT22;21870;42.812;74.628;2023-03-03T19:56:55;7.90;99.90
35746;DHT22;21870;42.812;74.628;2023-03-03T20:12:55;8.40;99.90
35746;DHT22;21870;42.812;74.628;2023-03-03T20:20:47;8.70;99.90
35746;DHT22;21870;42.812;74.628;2023-03-03T20:41:19;9.60;99.90
35746;DHT22;21870;42.812;74.628;2023-03-03T20:46:37;9.80;99.90
35746;DHT22;21870;42.812;74.628;2023-03-03T20:49:16;10.00;99.90
35746;DHT22;21870;42.812;74.628;2023-03-03T20:52:01;10.00;99.90
35746;DHT22;21870;42.812;74.628;2023-03-03T21:03:30;10.20;99.90
35746;DHT22;21870;42.812;74.628;2023-03-03T21:08:46;10.20;99.90
35746;DHT22;21870;42.812;74.628;2023-03-03T21:11:16;10.30;99.90
35746;DHT22;21870;42.812;74.628;2023-03-03T21:13:48;10.30;99.90
35746;DHT22;21870;42.812;74.628;2023-03-03T21:18:56;10.30;99.90
35746;DHT22;21870;42.812;74.628;2023-03-03T21:21:28;10.20;99.90
35746;DHT22;21870;42.812;74.628;2023-03-03T21:23:55;10.20;99.90
35746;DHT22;21870;42.812;74.628;2023-03-03T21:26:47;10.30;99.90
35746;DHT22;21870;42.812;74.628;2023-03-03T21:31:46;10.40;99.90
35746;DHT22;21870;42.812;74.628;2023-03-03T21:34:19;10.40;99.90
35746;DHT22;21870;42.812;74.628;2023-03-03T21:36:48;10.40;99.90
35746;DHT22;21870;42.812;74.628;2023-03-03T21:39:26;10.50;99.90
35746;DHT22;21870;42.812;74.628;2023-03-03T21:41:58;10.40;99.90
35746;DHT22;21870;42.812;74.628;2023-03-03T21:44:37;10.50;99.90
35746;DHT22;21870;42.812;74.628;2023-03-03T21:47:08;10.50;99.90
35746;DHT22;21870;42.812;74.628;2023-03-03T21:49:36;10.50;99.90
35746;DHT22;21870;42.812;74.628;2023-03-03T21:52:04;10.50;99.90
35746;DHT22;21870;42.812;74.628;2023-03-03T21:54:30;10.50;99.90
35746;DHT22;21870;42.812;74.628;2023-03-03T21:56:56;10.50;99.90
35746;DHT22;21870;42.812;74.628;2023-03-03T21:59:22;10.60;99.90
35746;DHT22;21870;42.812;74.628;2023-03-03T22:01:48;10.60;99.90
35746;DHT22;21870;42.812;74.628;2023-03-03T22:04:16;10.60;99.90
35746;DHT22;21870;42.812;74.628;2023-03-03T22:06:42;10.60;99.90
35746;DHT22;21870;42.812;74.628;2023-03-03T22:09:08;10.60;99.90
35746;DHT22;21870;42.812;74.628;2023-03-03T22:11:34;10.70;99.90
35746;DHT22;21870;42.812;74.628;2023-03-03T22:14:01;10.70;99.90
35746;DHT22;21870;42.812;74.628;2023-03-03T22:16:27;10.70;99.90
35746;DHT22;21870;42.812;74.628;2023-03-03T22:18:53;10.80;99.90
35746;DHT22;21870;42.812;74.628;2023-03-03T22:21:19;10.80;99.90
35746;DHT22;21870;42.812;74.628;2023-03-03T22:23:45;10.80;99.90
35746;DHT22;21870;42.812;74.628;2023-03-03T22:26:11;10.80;99.90
35746;DHT22;21870;42.812;74.628;2023-03-03T22:28:37;10.80;99.90